Observation data for Reese Center on 11/16/2019      Previous  Date       Current Mesonet Observations  Soil Data  Daily Summary Page  Observations in Plain Language
KREE 160600Z 18008KT 04/M01 A3018 RMK A01 T00381014  RH  070%=      5-min Rain = 0
KREE 160605Z 18008KT 04/M01 A3018 RMK A01 T00381014  RH  070%=      5-min Rain = 0
KREE 160610Z 18009KT 04/M01 A3018 RMK A01 T00371014  RH  070%=      5-min Rain = 0
KREE 160615Z 18009KT 04/M01 A3017 RMK A01 T00391013  RH  070%=      5-min Rain = 0
KREE 160620Z 18008KT 04/M01 A3017 RMK A01 T00391013  RH  070%=      5-min Rain = 0
KREE 160625Z 18008KT 04/M01 A3017 RMK A01 T00391012  RH  070%=      5-min Rain = 0
KREE 160630Z 18007KT 04/M01 A3017 RMK A01 T00411011  RH  070%=      5-min Rain = 0
KREE 160635Z 19007KT 04/M01 A3017 RMK A01 T00401012  RH  070%=      5-min Rain = 0
KREE 160640Z 19007KT 04/M01 A3017 RMK A01 T00401012  RH  070%=      5-min Rain = 0
KREE 160645Z 20007KT 04/M01 A3017 RMK A01 T00401012  RH  070%=      5-min Rain = 0
KREE 160650Z 20008KT 04/M01 A3016 RMK A01 T00401011  RH  070%=      5-min Rain = 0
KREE 160655Z 20008KT 04/M01 A3016 RMK A01 T00411010  RH  070%=      5-min Rain = 0
KREE 160700Z 20009KT 05/M01 A3016 RMK A01 T00451010  RH  069%=      5-min Rain = 0
KREE 160705Z 20009KT 05/M01 A3016 RMK A01 T00481009  RH  067%=      5-min Rain = 0
KREE 160710Z 20009KT 05/M01 A3016 RMK A01 T00501009  RH  067%=      5-min Rain = 0
KREE 160715Z 20009KT 05/M01 A3016 RMK A01 T00511009  RH  066%=      5-min Rain = 0
KREE 160720Z 20010KT 05/M01 A3015 RMK A01 T00531008  RH  065%=      5-min Rain = 0
KREE 160725Z 20010KT 05/M01 A3015 RMK A01 T00541008  RH  065%=      5-min Rain = 0
KREE 160730Z 20009KT 06/M01 A3015 RMK A01 T00551008  RH  065%=      5-min Rain = 0
KREE 160735Z 20009KT 05/M01 A3015 RMK A01 T00541008  RH  065%=      5-min Rain = 0
KREE 160740Z 20009KT 05/M01 A3015 RMK A01 T00541008  RH  065%=      5-min Rain = 0
KREE 160745Z 20008KT 05/M01 A3015 RMK A01 T00521008  RH  066%=      5-min Rain = 0
KREE 160750Z 20008KT 05/M01 A3015 RMK A01 T00501008  RH  067%=      5-min Rain = 0
KREE 160755Z 20008KT 05/M01 A3015 RMK A01 T00491008  RH  067%=      5-min Rain = 0
KREE 160800Z 20009KT 05/M01 A3015 RMK A01 T00481008  RH  068%=      5-min Rain = 0
KREE 160805Z 20008KT 05/M01 A3015 RMK A01 T00471008  RH  068%=      5-min Rain = 0
KREE 160810Z 20008KT 05/M01 A3015 RMK A01 T00461008  RH  069%=      5-min Rain = 0
KREE 160815Z 20008KT 05/M01 A3015 RMK A01 T00451008  RH  069%=      5-min Rain = 0
KREE 160820Z 20007KT 04/M01 A3015 RMK A01 T00431009  RH  070%=      5-min Rain = 0
KREE 160825Z 20007KT 04/M01 A3015 RMK A01 T00411009  RH  071%=      5-min Rain = 0
KREE 160830Z 19008KT 04/M01 A3015 RMK A01 T00391009  RH  071%=      5-min Rain = 0
KREE 160835Z 19008KT 04/M01 A3015 RMK A01 T00381009  RH  072%=      5-min Rain = 0
KREE 160840Z 19008KT 04/M01 A3015 RMK A01 T00371009  RH  072%=      5-min Rain = 0
KREE 160845Z 19008KT 04/M01 A3015 RMK A01 T00361009  RH  073%=      5-min Rain = 0
KREE 160850Z 19007KT 04/M01 A3014 RMK A01 T00361009  RH  073%=      5-min Rain = 0
KREE 160855Z 19007KT 04/M01 A3014 RMK A01 T00351009  RH  073%=      5-min Rain = 0
KREE 160900Z 19007KT 03/M01 A3014 RMK A01 T00331011  RH  074%=      5-min Rain = 0
KREE 160905Z 18006KT 03/M01 A3014 RMK A01 T00311011  RH  075%=      5-min Rain = 0
KREE 160910Z 18006KT 03/M01 A3014 RMK A01 T00291012  RH  075%=      5-min Rain = 0
KREE 160915Z 18006KT 03/M01 A3014 RMK A01 T00291012  RH  076%=      5-min Rain = 0
KREE 160920Z 18006KT 03/M01 A3014 RMK A01 T00271013  RH  076%=      5-min Rain = 0
KREE 160925Z 18007KT 03/M01 A3014 RMK A01 T00251013  RH  077%=      5-min Rain = 0
KREE 160930Z 18007KT 03/M01 A3014 RMK A01 T00251013  RH  077%=      5-min Rain = 0
KREE 160935Z 19008KT 02/M01 A3013 RMK A01 T00241012  RH  078%=      5-min Rain = 0
KREE 160940Z 19008KT 02/M01 A3013 RMK A01 T00241012  RH  078%=      5-min Rain = 0
KREE 160945Z 19008KT 02/M01 A3013 RMK A01 T00241011  RH  078%=      5-min Rain = 0
KREE 160950Z 20008KT 03/M01 A3013 RMK A01 T00251011  RH  078%=      5-min Rain = 0
KREE 160955Z 19008KT 03/M01 A3013 RMK A01 T00261010  RH  078%=      5-min Rain = 0
KREE 161000Z 19008KT 03/M01 A3013 RMK A01 T00261010  RH  078%=      5-min Rain = 0
KREE 161005Z 20008KT 03/M01 A3013 RMK A01 T00261010  RH  078%=      5-min Rain = 0
KREE 161010Z 20008KT 03/M01 A3013 RMK A01 T00261009  RH  078%=      5-min Rain = 0
KREE 161015Z 20007KT 03/M01 A3013 RMK A01 T00251010  RH  079%=      5-min Rain = 0
KREE 161020Z 20007KT 02/M01 A3013 RMK A01 T00231011  RH  079%=      5-min Rain = 0
KREE 161025Z 20007KT 02/M01 A3012 RMK A01 T00221011  RH  080%=      5-min Rain = 0
KREE 161030Z 20008KT 02/M01 A3012 RMK A01 T00241010  RH  079%=      5-min Rain = 0
KREE 161035Z 20008KT 02/M01 A3012 RMK A01 T00231010  RH  079%=      5-min Rain = 0
KREE 161040Z 20007KT 02/M01 A3012 RMK A01 T00221011  RH  080%=      5-min Rain = 0
KREE 161045Z 19008KT 02/M01 A3012 RMK A01 T00211011  RH  081%=      5-min Rain = 0
KREE 161050Z 19008KT 02/M01 A3012 RMK A01 T00191012  RH  081%=      5-min Rain = 0
KREE 161055Z 19008KT 02/M01 A3012 RMK A01 T00181012  RH  081%=      5-min Rain = 0
KREE 161100Z 19007KT 02/M01 A3012 RMK A01 T00171012  RH  082%=      5-min Rain = 0
KREE 161105Z 19007KT 02/M01 A3012 RMK A01 T00171012  RH  082%=      5-min Rain = 0
KREE 161110Z 19007KT 02/M01 A3012 RMK A01 T00171012  RH  082%=      5-min Rain = 0
KREE 161115Z 19007KT 02/M01 A3012 RMK A01 T00171012  RH  082%=      5-min Rain = 0
KREE 161120Z 19007KT 02/M01 A3012 RMK A01 T00161013  RH  082%=      5-min Rain = 0
KREE 161125Z 19007KT 01/M01 A3012 RMK A01 T00131014  RH  083%=      5-min Rain = 0
KREE 161130Z 19007KT 01/M01 A3012 RMK A01 T00131014  RH  083%=      5-min Rain = 0
KREE 161135Z 19007KT 01/M01 A3012 RMK A01 T00131013  RH  083%=      5-min Rain = 0
KREE 161140Z 19007KT 01/M01 A3012 RMK A01 T00121014  RH  084%=      5-min Rain = 0
KREE 161145Z 19007KT 01/M02 A3012 RMK A01 T00111015  RH  084%=      5-min Rain = 0
KREE 161150Z 19006KT 01/M02 A3012 RMK A01 T00111015  RH  084%=      5-min Rain = 0
KREE 161155Z 18006KT 01/M02 A3012 RMK A01 T00101015  RH  084%=      5-min Rain = 0
KREE 161200Z 18006KT 01/M02 A3012 RMK A01 T00101015  RH  084%=      5-min Rain = 0
KREE 161205Z 19006KT 01/M02 A3012 RMK A01 T00091015  RH  085%=      5-min Rain = 0
KREE 161210Z 19006KT 01/M02 A3012 RMK A01 T00091015  RH  085%=      5-min Rain = 0
KREE 161215Z 18006KT 01/M01 A3012 RMK A01 T00091014  RH  085%=      5-min Rain = 0
KREE 161220Z 18006KT 01/M01 A3012 RMK A01 T00081014  RH  086%=      5-min Rain = 0
KREE 161225Z 19006KT 01/M01 A3012 RMK A01 T00101013  RH  086%=      5-min Rain = 0
KREE 161230Z 18006KT 01/M01 A3012 RMK A01 T00101013  RH  086%=      5-min Rain = 0
KREE 161235Z 18006KT 01/M01 A3012 RMK A01 T00111012  RH  086%=      5-min Rain = 0
KREE 161240Z 18006KT 01/M01 A3012 RMK A01 T00131011  RH  085%=      5-min Rain = 0
KREE 161245Z 18006KT 01/M01 A3011 RMK A01 T00131011  RH  085%=      5-min Rain = 0
KREE 161250Z 18007KT 01/M01 A3011 RMK A01 T00141011  RH  085%=      5-min Rain = 0
KREE 161255Z 18007KT 01/M01 A3011 RMK A01 T00141011  RH  084%=      5-min Rain = 0
KREE 161300Z 18006KT 01/M01 A3011 RMK A01 T00121013  RH  085%=      5-min Rain = 0
KREE 161305Z 19006KT 01/M01 A3012 RMK A01 T00101014  RH  085%=      5-min Rain = 0
KREE 161310Z 19006KT 01/M01 A3012 RMK A01 T00091013  RH  086%=      5-min Rain = 0
KREE 161315Z 19005KT 01/M02 A3012 RMK A01 T00071015  RH  086%=      5-min Rain = 0
KREE 161320Z 19005KT 01/M02 A3012 RMK A01 T00061015  RH  087%=      5-min Rain = 0
KREE 161325Z 19005KT 01/M01 A3012 RMK A01 T00061014  RH  087%=      5-min Rain = 0
KREE 161330Z 19005KT 01/M01 A3012 RMK A01 T00071014  RH  087%=      5-min Rain = 0
KREE 161335Z 20006KT 01/M01 A3012 RMK A01 T00071014  RH  087%=      5-min Rain = 0
KREE 161340Z 20006KT 01/M01 A3012 RMK A01 T00071013  RH  087%=      5-min Rain = 0
KREE 161345Z 20006KT 01/M01 A3012 RMK A01 T00081013  RH  087%=      5-min Rain = 0
KREE 161350Z 20006KT 01/M01 A3012 RMK A01 T00071013  RH  087%=      5-min Rain = 0
KREE 161355Z 20005KT 01/M01 A3012 RMK A01 T00071013  RH  087%=      5-min Rain = 0
KREE 161400Z 20005KT 01/M01 A3012 RMK A01 T00091010  RH  088%=      5-min Rain = 0
KREE 161405Z 20005KT 01/M01 A3012 RMK A01 T00141006  RH  087%=      5-min Rain = 0
KREE 161410Z 20005KT 02/M00 A3013 RMK A01 T00191004  RH  086%=      5-min Rain = 0
KREE 161415Z 20006KT 02/M00 A3013 RMK A01 T00241001  RH  085%=      5-min Rain = 0
KREE 161420Z 20007KT 03/00 A3013 RMK A01 T002700-0  RH  083%=      5-min Rain = 0
KREE 161425Z 20007KT 03/00 A3012 RMK A01 T00310001  RH  082%=      5-min Rain = 0
KREE 161430Z 19009KT 03/00 A3012 RMK A01 T00340001  RH  080%=      5-min Rain = 0
KREE 161435Z 20008KT 04/00 A3012 RMK A01 T00380003  RH  079%=      5-min Rain = 0
KREE 161440Z 20008KT 04/00 A3012 RMK A01 T00410004  RH  078%=      5-min Rain = 0
KREE 161445Z 19009KT 05/01 A3012 RMK A01 T00460005  RH  076%=      5-min Rain = 0
KREE 161450Z 19010KT 05/01 A3012 RMK A01 T00490005  RH  074%=      5-min Rain = 0
KREE 161455Z 20009KT 05/01 A3012 RMK A01 T00520006  RH  073%=      5-min Rain = 0
KREE 161500Z 20009KT 06/01 A3012 RMK A01 T00570008  RH  071%=      5-min Rain = 0
KREE 161505Z 20010KT 06/01 A3012 RMK A01 T00630008  RH  069%=      5-min Rain = 0
KREE 161510Z 20011KT 07/01 A3012 RMK A01 T00660008  RH  067%=      5-min Rain = 0
KREE 161515Z 20011KT 07/01 A3012 RMK A01 T00680007  RH  066%=      5-min Rain = 0
KREE 161520Z 20011KT 07/01 A3011 RMK A01 T00700007  RH  065%=      5-min Rain = 0
KREE 161525Z 20011KT 07/01 A3011 RMK A01 T00730008  RH  064%=      5-min Rain = 0
KREE 161530Z 20011KT 08/01 A3012 RMK A01 T00760008  RH  063%=      5-min Rain = 0
KREE 161535Z 20010KT 08/01 A3011 RMK A01 T00800009  RH  062%=      5-min Rain = 0
KREE 161540Z 21011KT 08/01 A3011 RMK A01 T00820009  RH  061%=      5-min Rain = 0
KREE 161545Z 21013KT 08/01 A3011 RMK A01 T00820008  RH  060%=      5-min Rain = 0
KREE 161550Z 21011KT 08/01 A3011 RMK A01 T00840009  RH  060%=      5-min Rain = 0
KREE 161555Z 21011KT 09/01 A3011 RMK A01 T00890011  RH  059%=      5-min Rain = 0
KREE 161600Z 20010KT 09/01 A3011 RMK A01 T00900011  RH  058%=      5-min Rain = 0
KREE 161605Z 20011KT 09/01 A3011 RMK A01 T00890010  RH  058%=      5-min Rain = 0
KREE 161610Z 21012KT 09/01 A3011 RMK A01 T00900011  RH  058%=      5-min Rain = 0
KREE 161615Z 21010KT 09/01 A3011 RMK A01 T00930012  RH  058%=      5-min Rain = 0
KREE 161620Z 21009KT 10/01 A3011 RMK A01 T00950012  RH  057%=      5-min Rain = 0
KREE 161625Z 22011KT 10/01 A3011 RMK A01 T00950012  RH  057%=      5-min Rain = 0
KREE 161630Z 21009KT 10/01 A3011 RMK A01 T00990014  RH  056%=      5-min Rain = 0
KREE 161635Z 20009KT 10/01 A3011 RMK A01 T01020014  RH  055%=      5-min Rain = 0
KREE 161640Z 21010KT 11/02 A3011 RMK A01 T01060015  RH  054%=      5-min Rain = 0
KREE 161645Z 21010KT 11/02 A3011 RMK A01 T01100015  RH  052%=      5-min Rain = 0
KREE 161650Z 20009KT 11/01 A3011 RMK A01 T01120014  RH  052%=      5-min Rain = 0
KREE 161655Z 21009KT 11/01 A301 RMK A01 T01110014  RH  052%=      5-min Rain = 0
KREE 161700Z 20009KT 11/02 A301 RMK A01 T01120015  RH  052%=      5-min Rain = 0
KREE 161705Z 20009KT 11/01 A301 RMK A01 T01140013  RH  050%=      5-min Rain = 0
KREE 161710Z 19009KT 11/01 A301 RMK A01 T01140013  RH  050%=      5-min Rain = 0
KREE 161715Z 20010KT 12/01 A3009 RMK A01 T01150013  RH  050%=      5-min Rain = 0
KREE 161720Z 21009KT 12/01 A3009 RMK A01 T01160013  RH  050%=      5-min Rain = 0
KREE 161725Z 20008KT 12/01 A3009 RMK A01 T01200014  RH  049%=      5-min Rain = 0
KREE 161730Z 20008KT 13/01 A3009 RMK A01 T01250014  RH  047%=      5-min Rain = 0
KREE 161735Z 20008KT 13/01 A3008 RMK A01 T01260014  RH  047%=      5-min Rain = 0
KREE 161740Z 20008KT 13/01 A3008 RMK A01 T01300014  RH  046%=      5-min Rain = 0
KREE 161745Z 20007KT 13/02 A3008 RMK A01 T01330015  RH  045%=      5-min Rain = 0
KREE 161750Z 19008KT 14/02 A3007 RMK A01 T01350015  RH  045%=      5-min Rain = 0
KREE 161755Z 19009KT 14/02 A3007 RMK A01 T01390016  RH  044%=      5-min Rain = 0
KREE 161800Z 20010KT 14/01 A3006 RMK A01 T01380013  RH  043%=      5-min Rain = 0
KREE 161805Z 18010KT 14/01 A3006 RMK A01 T01370013  RH  043%=      5-min Rain = 0
KREE 161810Z 19009KT 14/01 A3006 RMK A01 T01370013  RH  043%=      5-min Rain = 0
KREE 161815Z 19009KT 14/02 A3006 RMK A01 T01380015  RH  044%=      5-min Rain = 0
KREE 161820Z 19010KT 14/02 A3005 RMK A01 T01390015  RH  043%=      5-min Rain = 0
KREE 161825Z 19010KT 14/02 A3005 RMK A01 T01390015  RH  043%=      5-min Rain = 0
KREE 161830Z 19011KT 14/01 A3005 RMK A01 T01420014  RH  042%=      5-min Rain = 0
KREE 161835Z 18009KT 14/02 A3004 RMK A01 T01440017  RH  043%=      5-min Rain = 0
KREE 161840Z 18009KT 14/02 A3004 RMK A01 T01430018  RH  043%=      5-min Rain = 0
KREE 161845Z 17010KT 15/02 A3004 RMK A01 T01470018  RH  042%=      5-min Rain = 0
KREE 161850Z 18012KT 15/02 A3003 RMK A01 T01510015  RH  040%=      5-min Rain = 0
KREE 161855Z 19010KT 15/01 A3003 RMK A01 T01510014  RH  040%=      5-min Rain = 0
KREE 161900Z 18012KT 15/01 A3002 RMK A01 T01530014  RH  039%=      5-min Rain = 0
KREE 161905Z 19013KT 16/01 A3002 RMK A01 T01550012  RH  038%=      5-min Rain = 0
KREE 161910Z 19013KT 16/01 A3002 RMK A01 T01570012  RH  038%=      5-min Rain = 0
KREE 161915Z 19012KT 16/01 A3002 RMK A01 T01590013  RH  038%=      5-min Rain = 0
KREE 161920Z 20011G16KT 16/01 A3001 RMK A01 T01590014  RH  038%=      5-min Rain = 0
KREE 161925Z 18011KT 16/02 A3001 RMK A01 T01590016  RH  038%=      5-min Rain = 0
KREE 161930Z 18010KT 16/02 A3001 RMK A01 T01600016  RH  038%=      5-min Rain = 0
KREE 161935Z 18011KT 16/02 A3001 RMK A01 T01600018  RH  039%=      5-min Rain = 0
KREE 161940Z 20011KT 16/02 A30 RMK A01 T01620018  RH  038%=      5-min Rain = 0
KREE 161945Z 19011G16KT 17/02 A30 RMK A01 T01670016  RH  036%=      5-min Rain = 0
KREE 161950Z 20012KT 17/01 A30 RMK A01 T01680011  RH  035%=      5-min Rain = 0
KREE 161955Z 19011KT 17/01 A30 RMK A01 T01680010  RH  035%=      5-min Rain = 0
KREE 162000Z 20012KT 17/01 A30 RMK A01 T01680009  RH  035%=      5-min Rain = 0
KREE 162005Z 19013KT 17/01 A30 RMK A01 T01680008  RH  034%=      5-min Rain = 0
KREE 162010Z 18014G19KT 17/01 A2999 RMK A01 T01700008  RH  034%=      5-min Rain = 0
KREE 162015Z 18014KT 17/01 A2999 RMK A01 T01660007  RH  034%=      5-min Rain = 0
KREE 162020Z 19013KT 17/01 A2999 RMK A01 T01660008  RH  035%=      5-min Rain = 0
KREE 162025Z 19014KT 17/01 A2999 RMK A01 T01680008  RH  034%=      5-min Rain = 0
KREE 162030Z 19014KT 17/01 A2999 RMK A01 T01680009  RH  034%=      5-min Rain = 0
KREE 162035Z 20013KT 17/01 A2999 RMK A01 T01660009  RH  035%=      5-min Rain = 0
KREE 162040Z 19012G17KT 17/01 A2999 RMK A01 T01680011  RH  035%=      5-min Rain = 0
KREE 162045Z 20013KT 17/01 A2998 RMK A01 T01690011  RH  035%=      5-min Rain = 0
KREE 162050Z 19013KT 17/01 A2998 RMK A01 T01740013  RH  034%=      5-min Rain = 0
KREE 162055Z 20012KT 18/01 A2998 RMK A01 T01750011  RH  033%=      5-min Rain = 0
KREE 162100Z 19012KT 18/01 A2998 RMK A01 T01760013  RH  034%=      5-min Rain = 0
KREE 162105Z 18011G16KT 18/02 A2997 RMK A01 T01780015  RH  034%=      5-min Rain = 0
KREE 162110Z 18013KT 18/01 A2997 RMK A01 T01780014  RH  034%=      5-min Rain = 0
KREE 162115Z 18013KT 18/02 A2997 RMK A01 T01770016  RH  034%=      5-min Rain = 0
KREE 162120Z 19013KT 18/02 A2997 RMK A01 T01770015  RH  034%=      5-min Rain = 0
KREE 162125Z 19012KT 18/02 A2997 RMK A01 T01830015  RH  033%=      5-min Rain = 0
KREE 162130Z 19013KT 18/01 A2997 RMK A01 T01790013  RH  033%=      5-min Rain = 0
KREE 162135Z 18013KT 18/02 A2997 RMK A01 T01800016  RH  034%=      5-min Rain = 0
KREE 162140Z 18013KT 18/02 A2997 RMK A01 T01770017  RH  035%=      5-min Rain = 0
KREE 162145Z 18014KT 18/02 A2997 RMK A01 T01750018  RH  035%=      5-min Rain = 0
KREE 162150Z 18013KT 18/02 A2997 RMK A01 T01750018  RH  035%=      5-min Rain = 0
KREE 162155Z 18014KT 17/02 A2996 RMK A01 T01720016  RH  035%=      5-min Rain = 0
KREE 162200Z 18014KT 17/01 A2996 RMK A01 T01690014  RH  036%=      5-min Rain = 0
KREE 162205Z 18012KT 17/01 A2996 RMK A01 T01680014  RH  036%=      5-min Rain = 0
KREE 162210Z 18012KT 17/02 A2996 RMK A01 T01720015  RH  035%=      5-min Rain = 0
KREE 162215Z 18012KT 17/01 A2996 RMK A01 T01730012  RH  034%=      5-min Rain = 0
KREE 162220Z 18012KT 17/01 A2996 RMK A01 T01720011  RH  034%=      5-min Rain = 0
KREE 162225Z 18011KT 17/01 A2996 RMK A01 T01700012  RH  035%=      5-min Rain = 0
KREE 162230Z 18009KT 17/01 A2996 RMK A01 T01700014  RH  035%=      5-min Rain = 0
KREE 162235Z 18010KT 18/02 A2996 RMK A01 T01770017  RH  035%=      5-min Rain = 0
KREE 162240Z 17013KT 18/02 A2996 RMK A01 T01780020  RH  035%=      5-min Rain = 0
KREE 162245Z 17012KT 17/02 A2996 RMK A01 T01710023  RH  038%=      5-min Rain = 0
KREE 162250Z 18012KT 17/02 A2996 RMK A01 T01700024  RH  038%=      5-min Rain = 0
KREE 162255Z 18012KT 17/02 A2996 RMK A01 T01650022  RH  039%=      5-min Rain = 0
KREE 162300Z 17011KT 16/02 A2996 RMK A01 T01600022  RH  040%=      5-min Rain = 0
KREE 162305Z 18011KT 16/02 A2996 RMK A01 T01570021  RH  040%=      5-min Rain = 0
KREE 162310Z 18011KT 16/02 A2996 RMK A01 T01560018  RH  040%=      5-min Rain = 0
KREE 162315Z 18010KT 15/02 A2996 RMK A01 T01540017  RH  040%=      5-min Rain = 0
KREE 162320Z 18009KT 15/02 A2996 RMK A01 T01530016  RH  040%=      5-min Rain = 0
KREE 162325Z 19009KT 15/02 A2996 RMK A01 T01520015  RH  040%=      5-min Rain = 0
KREE 162330Z 19008KT 15/02 A2996 RMK A01 T01500015  RH  040%=      5-min Rain = 0
KREE 162335Z 18008KT 15/02 A2996 RMK A01 T01480015  RH  041%=      5-min Rain = 0
KREE 162340Z 18008KT 15/01 A2996 RMK A01 T01470014  RH  041%=      5-min Rain = 0
KREE 162345Z 18008KT 15/01 A2996 RMK A01 T01450014  RH  042%=      5-min Rain = 0
KREE 162350Z 19008KT 14/01 A2997 RMK A01 T01390013  RH  043%=      5-min Rain = 0
KREE 162355Z 18008KT 14/01 A2997 RMK A01 T01350014  RH  044%=      5-min Rain = 0
KREE 170000Z 18008KT 13/01 A2997 RMK A01 T01320014  RH  045%=      5-min Rain = 0
KREE 170005Z 19009KT 13/01 A2997 RMK A01 T01290013  RH  046%=      5-min Rain = 0
KREE 170010Z 19009KT 13/01 A2997 RMK A01 T01260013  RH  047%=      5-min Rain = 0
KREE 170015Z 18009KT 12/01 A2997 RMK A01 T01230013  RH  047%=      5-min Rain = 0
KREE 170020Z 18009KT 12/01 A2997 RMK A01 T01230013  RH  047%=      5-min Rain = 0
KREE 170025Z 18009KT 12/01 A2997 RMK A01 T01230012  RH  047%=      5-min Rain = 0
KREE 170030Z 17008KT 12/01 A2997 RMK A01 T01170011  RH  049%=      5-min Rain = 0
KREE 170035Z 18008KT 12/01 A2997 RMK A01 T01150011  RH  049%=      5-min Rain = 0
KREE 170040Z 18008KT 11/01 A2997 RMK A01 T01120011  RH  050%=      5-min Rain = 0
KREE 170045Z 18008KT 11/01 A2997 RMK A01 T01110011  RH  051%=      5-min Rain = 0
KREE 170050Z 17008KT 11/01 A2997 RMK A01 T01070010  RH  052%=      5-min Rain = 0
KREE 170055Z 18008KT 10/01 A2997 RMK A01 T01030010  RH  053%=      5-min Rain = 0
KREE 170100Z 17008KT 10/01 A2997 RMK A01 T00990010  RH  055%=      5-min Rain = 0
KREE 170105Z 16007KT 10/01 A2997 RMK A01 T00960011  RH  056%=      5-min Rain = 0
KREE 170110Z 16008KT 10/01 A2997 RMK A01 T00960013  RH  057%=      5-min Rain = 0
KREE 170115Z 16008KT 10/02 A2997 RMK A01 T00960015  RH  058%=      5-min Rain = 0
KREE 170120Z 16008KT 10/02 A2997 RMK A01 T00980017  RH  058%=      5-min Rain = 0
KREE 170125Z 16009KT 10/02 A2997 RMK A01 T01000019  RH  058%=      5-min Rain = 0
KREE 170130Z 16009KT 10/02 A2997 RMK A01 T00990019  RH  058%=      5-min Rain = 0
KREE 170135Z 17008KT 10/02 A2997 RMK A01 T00980019  RH  059%=      5-min Rain = 0
KREE 170140Z 17008KT 10/02 A2997 RMK A01 T00970019  RH  059%=      5-min Rain = 0
KREE 170145Z 17009KT 10/02 A2997 RMK A01 T00950018  RH  059%=      5-min Rain = 0
KREE 170150Z 17009KT 10/02 A2997 RMK A01 T00960019  RH  059%=      5-min Rain = 0
KREE 170155Z 17008KT 10/02 A2997 RMK A01 T00960018  RH  059%=      5-min Rain = 0
KREE 170200Z 17008KT 09/02 A2997 RMK A01 T00940018  RH  060%=      5-min Rain = 0
KREE 170205Z 17009KT 09/02 A2997 RMK A01 T00940019  RH  060%=      5-min Rain = 0
KREE 170210Z 17009KT 10/02 A2997 RMK A01 T00950019  RH  060%=      5-min Rain = 0
KREE 170215Z 18009KT 10/02 A2997 RMK A01 T00950019  RH  060%=      5-min Rain = 0
KREE 170220Z 18009KT 10/02 A2997 RMK A01 T00960018  RH  059%=      5-min Rain = 0
KREE 170225Z 18009KT 10/02 A2997 RMK A01 T00960018  RH  059%=      5-min Rain = 0
KREE 170230Z 19008KT 10/02 A2998 RMK A01 T00950018  RH  059%=      5-min Rain = 0
KREE 170235Z 19008KT 09/02 A2998 RMK A01 T00910017  RH  061%=      5-min Rain = 0
KREE 170240Z 18009KT 09/02 A2997 RMK A01 T00870016  RH  062%=      5-min Rain = 0
KREE 170245Z 19009KT 09/02 A2997 RMK A01 T00850015  RH  062%=      5-min Rain = 0
KREE 170250Z 19009KT 08/01 A2997 RMK A01 T00810014  RH  063%=      5-min Rain = 0
KREE 170255Z 19009KT 08/01 A2997 RMK A01 T00800014  RH  064%=      5-min Rain = 0
KREE 170300Z 19008KT 08/01 A2997 RMK A01 T00790013  RH  064%=      5-min Rain = 0
KREE 170305Z 19008KT 08/01 A2997 RMK A01 T00780014  RH  064%=      5-min Rain = 0
KREE 170310Z 18010KT 08/01 A2997 RMK A01 T00790014  RH  064%=      5-min Rain = 0
KREE 170315Z 18010KT 08/02 A2997 RMK A01 T00800015  RH  064%=      5-min Rain = 0
KREE 170320Z 18010KT 08/02 A2997 RMK A01 T00810016  RH  064%=      5-min Rain = 0
KREE 170325Z 19009KT 08/02 A2997 RMK A01 T00800017  RH  065%=      5-min Rain = 0
KREE 170330Z 19008KT 08/02 A2997 RMK A01 T00770016  RH  066%=      5-min Rain = 0
KREE 170335Z 19008KT 07/02 A2997 RMK A01 T00720015  RH  068%=      5-min Rain = 0
KREE 170340Z 19009KT 07/02 A2997 RMK A01 T00690015  RH  069%=      5-min Rain = 0
KREE 170345Z 19009KT 07/02 A2997 RMK A01 T00710017  RH  069%=      5-min Rain = 0
KREE 170350Z 19009KT 07/02 A2997 RMK A01 T00710017  RH  069%=      5-min Rain = 0
KREE 170355Z 20009KT 07/02 A2997 RMK A01 T00710017  RH  069%=      5-min Rain = 0
KREE 170400Z 19009KT 07/02 A2996 RMK A01 T00690016  RH  070%=      5-min Rain = 0
KREE 170405Z 19007KT 06/01 A2997 RMK A01 T00630014  RH  072%=      5-min Rain = 0
KREE 170410Z 19009KT 06/02 A2997 RMK A01 T00640016  RH  072%=      5-min Rain = 0
KREE 170415Z 19009KT 06/02 A2997 RMK A01 T00640016  RH  072%=      5-min Rain = 0
KREE 170420Z 19008KT 06/02 A2997 RMK A01 T00640015  RH  072%=      5-min Rain = 0
KREE 170425Z 19007KT 06/01 A2997 RMK A01 T00600013  RH  073%=      5-min Rain = 0
KREE 170430Z 19007KT 06/01 A2997 RMK A01 T00580013  RH  074%=      5-min Rain = 0
KREE 170435Z 19007KT 06/01 A2997 RMK A01 T00600014  RH  073%=      5-min Rain = 0
KREE 170440Z 20009KT 06/02 A2997 RMK A01 T00610015  RH  073%=      5-min Rain = 0
KREE 170445Z 20008KT 07/02 A2997 RMK A01 T00650016  RH  072%=      5-min Rain = 0
KREE 170450Z 19007KT 07/02 A2997 RMK A01 T00660017  RH  072%=      5-min Rain = 0
KREE 170455Z 20006KT 07/02 A2997 RMK A01 T00660017  RH  072%=      5-min Rain = 0
KREE 170500Z 20007KT 07/02 A2997 RMK A01 T00690019  RH  071%=      5-min Rain = 0
KREE 170505Z 20007KT 07/02 A2996 RMK A01 T00730021  RH  070%=      5-min Rain = 0
KREE 170510Z 20006KT 08/02 A2996 RMK A01 T00750023  RH  071%=      5-min Rain = 0
KREE 170515Z 21007KT 08/03 A2996 RMK A01 T00780026  RH  071%=      5-min Rain = 0
KREE 170520Z 21007KT 08/03 A2996 RMK A01 T00800028  RH  071%=      5-min Rain = 0
KREE 170525Z 21007KT 08/03 A2996 RMK A01 T00810029  RH  071%=      5-min Rain = 0
KREE 170530Z 21007KT 08/03 A2996 RMK A01 T00810030  RH  071%=      5-min Rain = 0
KREE 170535Z 21006KT 08/03 A2996 RMK A01 T00820030  RH  071%=      5-min Rain = 0
KREE 170540Z 22007KT 09/03 A2996 RMK A01 T00850031  RH  070%=      5-min Rain = 0
KREE 170545Z 22007KT 08/03 A2997 RMK A01 T00840030  RH  070%=      5-min Rain = 0
KREE 170550Z 22006KT 08/03 A2997 RMK A01 T00810029  RH  070%=      5-min Rain = 0
KREE 170555Z 23005KT 08/03 A2997 RMK A01 T00800028  RH  070%=      5-min Rain = 0

Page generated in 0.0164 seconds.